Time;durP1;ratioP1;P1;durP2;ratioP2;P2;SDS_P1;SDS_P2;PMS_P1;PMS_P2;Temp;Humidity;BMP_temperature;BMP_pressure;BME280_temperature;BME280_humidity;BME280_pressure;Samples;Min_cycle;Max_cycle;Signal;HPM_P1;HPM_P2
2023/10/30 00:00:46;;;;;;;9.85;8.95;;;;;;;-145.63;54.38;39329.34;5004425;28;20268;-71
2023/10/30 00:03:14;;;;;;;10.38;8.75;;;;;;;-145.63;54.27;39350.84;5004590;28;20033;-71
2023/10/30 00:05:40;;;;;;;9.85;8.85;;;;;;;-145.63;54.48;39315.66;5004732;28;20022;-70
2023/10/30 00:08:06;;;;;;;10.45;9.38;;;;;;;-145.63;54.42;39344.97;5004409;28;20030;-70
2023/10/30 00:10:34;;;;;;;10.13;8.55;;;;;;;-145.63;53.83;39307.81;5003542;28;20041;-70
2023/10/30 00:12:59;;;;;;;9.90;8.90;;;;;;;-145.63;53.65;39327.38;5004404;28;20057;-70
2023/10/30 00:15:25;;;;;;;9.02;7.88;;;;;;;-145.63;54.06;39323.47;5004016;28;20030;-70
2023/10/30 00:17:51;;;;;;;9.95;8.73;;;;;;;-145.63;54.16;39323.47;4987003;28;20022;-73
2023/10/30 00:20:17;;;;;;;9.73;8.63;;;;;;;-145.63;54.21;39346.94;5004133;28;20258;-72
2023/10/30 00:22:43;;;;;;;10.00;8.93;;;;;;;-145.63;54.41;39346.94;4986757;28;20108;-71
2023/10/30 00:25:09;;;;;;;11.18;9.60;;;;;;;-145.63;54.62;39360.63;5004261;28;20041;-72
2023/10/30 00:27:35;;;;;;;12.23;10.52;;;;;;;-145.63;54.24;39348.88;5003915;28;20026;-72
2023/10/30 00:30:01;;;;;;;9.93;8.90;;;;;;;-145.63;54.04;39337.16;5004022;28;20042;-72
2023/10/30 00:32:26;;;;;;;10.80;8.73;;;;;;;-145.63;54.00;39329.34;5003367;28;20361;-72
2023/10/30 00:34:52;;;;;;;10.90;9.60;;;;;;;-145.63;53.86;39360.63;5003499;28;20049;-70
2023/10/30 00:37:17;;;;;;;10.23;9.18;;;;;;;-145.63;53.71;39354.75;5003738;28;20333;-71
2023/10/30 00:39:43;;;;;;;9.45;8.45;;;;;;;-145.63;53.95;39321.50;5012358;28;20026;-70
2023/10/30 00:42:09;;;;;;;10.23;9.23;;;;;;;-145.63;53.63;39368.44;5014646;28;20030;-70
2023/10/30 00:44:37;;;;;;;10.27;8.82;;;;;;;-145.63;53.19;39344.97;5003435;28;20065;-71
2023/10/30 00:47:04;;;;;;;10.18;8.50;;;;;;;-145.63;52.88;39341.06;5004035;28;20026;-70
2023/10/30 00:49:31;;;;;;;8.68;7.78;;;;;;;-145.63;53.23;39335.19;5003501;28;20085;-71
2023/10/30 00:51:57;;;;;;;10.38;8.20;;;;;;;-145.63;53.54;39339.13;4986451;28;20211;-71
2023/10/30 00:54:22;;;;;;;9.95;8.38;;;;;;;-145.63;53.44;39346.94;5003190;28;20137;-70
2023/10/30 00:56:48;;;;;;;8.23;7.40;;;;;;;-145.63;52.76;39360.63;5004895;28;20018;-69
2023/10/30 00:59:14;;;;;;;8.65;7.47;;;;;;;-145.63;52.79;39335.19;5003594;28;20040;-71
2023/10/30 01:01:40;;;;;;;8.98;7.90;;;;;;;-145.63;53.04;39317.59;5004053;28;20030;-69
2023/10/30 01:04:06;;;;;;;8.48;7.65;;;;;;;-145.63;53.25;39348.88;5003629;28;20022;-69
2023/10/30 01:06:31;;;;;;;8.13;7.32;;;;;;;-145.63;53.09;39346.94;5005134;28;20026;-69
2023/10/30 01:08:57;;;;;;;8.13;7.32;;;;;;;-145.63;52.92;39356.72;5023446;28;20018;-69
2023/10/30 01:11:23;;;;;;;9.27;8.23;;;;;;;-145.63;52.49;39356.72;5020983;28;20052;-70
2023/10/30 01:13:48;;;;;;;8.00;7.20;;;;;;;-145.63;53.07;39350.84;5003372;28;20022;-71
2023/10/30 01:16:14;;;;;;;8.95;7.22;;;;;;;-145.63;52.59;39309.78;5003475;28;20355;-69
2023/10/30 01:18:40;;;;;;;9.68;8.10;;;;;;;-145.63;52.61;39341.06;5003217;28;20210;-70
2023/10/30 01:21:12;;;;;;;10.52;9.43;;;;;;;-145.63;53.21;39323.47;5003455;28;20282;-69
2023/10/30 01:23:38;;;;;;;9.38;8.38;;;;;;;-145.63;53.47;39343.03;5007299;28;20034;-69
2023/10/30 01:26:04;;;;;;;9.43;8.52;;;;;;;-145.63;53.51;39382.13;4990507;28;20030;-69
2023/10/30 01:28:30;;;;;;;8.65;7.43;;;;;;;-145.63;53.54;39344.97;5007080;28;20138;-68
2023/10/30 01:30:56;;;;;;;9.80;8.70;;;;;;;-145.63;53.85;39364.53;5007606;28;20076;-69
2023/10/30 01:33:23;;;;;;;7.65;6.82;;;;;;;-145.63;53.62;39352.81;5007254;28;20054;-69
2023/10/30 01:35:49;;;;;;;13.85;11.45;;;;;;;-145.63;53.54;39352.81;5007338;28;20314;-69
2023/10/30 01:38:14;;;;;;;8.63;7.72;;;;;;;-145.63;53.25;39321.50;5007013;28;20030;-70
2023/10/30 01:40:50;;;;;;;8.52;7.63;;;;;;;-145.63;53.35;39341.06;5007054;28;20030;-69
2023/10/30 01:43:16;;;;;;;8.23;7.43;;;;;;;-145.63;53.46;39368.44;5007050;28;20023;-69
2023/10/30 01:45:42;;;;;;;7.93;7.13;;;;;;;-145.63;53.14;39331.28;5007445;28;20149;-71
2023/10/30 01:48:09;;;;;;;9.55;7.55;;;;;;;-145.63;53.36;39325.41;5007401;28;20315;-69
2023/10/30 01:50:36;;;;;;;9.38;7.70;;;;;;;-145.63;53.98;39348.88;5006733;28;20210;-69
2023/10/30 01:53:03;;;;;;;8.98;7.63;;;;;;;-145.63;53.92;39344.97;5007061;28;20101;-70
2023/10/30 01:55:29;;;;;;;9.18;8.27;;;;;;;-145.63;53.96;39364.53;5006560;28;20089;-70
2023/10/30 01:57:55;;;;;;;8.43;7.60;;;;;;;-145.63;53.90;39372.34;5006603;28;20023;-68
2023/10/30 02:00:21;;;;;;;11.00;7.93;;;;;;;-145.63;53.48;39331.28;5006648;28;20030;-70
2023/10/30 02:02:50;;;;;;;8.15;7.35;;;;;;;-145.63;53.44;39372.34;5006203;28;20050;-68
2023/10/30 02:05:16;;;;;;;7.75;7.05;;;;;;;-145.63;53.18;39356.72;5006463;28;20037;-69
2023/10/30 02:07:42;;;;;;;8.23;7.35;;;;;;;-145.63;52.62;39331.28;5006823;28;20202;-68
2023/10/30 02:10:08;;;;;;;9.05;7.72;;;;;;;-145.63;53.41;39329.34;5006629;28;20271;-69
2023/10/30 02:12:35;;;;;;;8.32;7.53;;;;;;;-145.63;53.52;39331.28;5006622;28;20045;-70
2023/10/30 02:15:03;;;;;;;7.93;7.22;;;;;;;-145.63;53.41;39358.66;5006786;28;20030;-69
2023/10/30 02:17:32;;;;;;;8.15;7.35;;;;;;;-145.63;53.69;39341.06;5006404;28;20038;-71
2023/10/30 02:19:58;;;;;;;7.82;7.03;;;;;;;-145.63;53.80;39364.53;5006734;28;20027;-69
2023/10/30 02:22:23;;;;;;;8.73;7.82;;;;;;;-145.63;53.93;39348.88;4989242;28;20026;-68
2023/10/30 02:24:49;;;;;;;10.25;8.63;;;;;;;-145.63;54.11;39348.88;5013133;28;20114;-69
2023/10/30 02:27:14;;;;;;;8.80;7.90;;;;;;;-145.63;54.61;39321.50;5000180;28;20041;-69
2023/10/30 02:29:40;;;;;;;8.95;8.05;;;;;;;-145.63;54.38;39344.97;5006274;28;20037;-69
2023/10/30 02:32:06;;;;;;;9.02;8.13;;;;;;;-145.63;54.42;39327.38;4989245;28;20037;-70
2023/10/30 02:34:32;;;;;;;8.95;8.02;;;;;;;-145.63;54.42;39321.50;5005112;28;20021;-69
2023/10/30 02:36:58;;;;;;;8.82;7.93;;;;;;;-145.63;54.58;39348.88;5006377;28;20356;-69
2023/10/30 02:39:24;;;;;;;8.57;7.68;;;;;;;-145.63;54.41;39325.41;5006201;28;20034;-70
2023/10/30 02:41:49;;;;;;;8.68;7.88;;;;;;;-145.63;54.24;39319.56;5006124;28;20077;-69
2023/10/30 02:44:15;;;;;;;9.00;8.10;;;;;;;-145.63;53.98;39348.88;5006012;28;20314;-69
2023/10/30 02:46:41;;;;;;;8.63;7.68;;;;;;;-145.63;54.32;39352.81;5006194;28;20041;-71
2023/10/30 02:49:06;;;;;;;9.55;8.55;;;;;;;-145.63;54.03;39368.44;5005916;28;20169;-68
2023/10/30 02:51:32;;;;;;;9.48;8.48;;;;;;;-145.63;54.35;39319.56;5005838;28;20030;-68
2023/10/30 02:53:58;;;;;;;10.30;8.43;;;;;;;-145.63;54.25;39094.66;4987995;28;20053;-68
2023/10/30 02:56:23;;;;;;;9.65;8.65;;;;;;;-145.63;54.04;39317.59;5005193;28;20030;-68
2023/10/30 02:58:49;;;;;;;8.57;7.78;;;;;;;-145.63;54.36;39487.75;5005702;28;20026;-68
2023/10/30 03:01:14;;;;;;;9.88;8.88;;;;;;;-145.63;53.94;39337.16;5005747;28;20026;-69
2023/10/30 03:03:40;;;;;;;9.60;8.38;;;;;;;-145.63;53.59;39348.88;5005590;28;20034;-69
2023/10/30 03:06:06;;;;;;;9.50;8.32;;;;;;;-145.63;53.56;39327.38;5005669;28;20030;-69
2023/10/30 03:08:31;;;;;;;9.57;8.68;;;;;;;-145.63;54.03;39331.28;5005629;28;20238;-70
2023/10/30 03:10:57;;;;;;;9.32;8.43;;;;;;;-145.63;53.98;39350.84;5005601;28;20337;-70
2023/10/30 03:13:23;;;;;;;8.77;7.88;;;;;;;-145.63;53.66;39331.28;5005345;28;20026;-69
2023/10/30 03:15:49;;;;;;;8.75;7.88;;;;;;;-145.63;53.90;39343.03;5005634;28;20033;-68
2023/10/30 03:18:14;;;;;;;10.70;8.82;;;;;;;-145.63;53.94;39343.03;5005328;28;20254;-69
2023/10/30 03:20:40;;;;;;;10.20;9.02;;;;;;;-145.63;54.23;39313.69;5005246;28;20033;-68
2023/10/30 03:23:05;;;;;;;11.45;8.70;;;;;;;-145.63;54.19;39319.56;5005303;28;20025;-68
2023/10/30 03:25:31;;;;;;;8.98;8.02;;;;;;;-145.63;54.44;39331.28;5004883;28;20061;-68
2023/10/30 03:27:57;;;;;;;9.23;8.07;;;;;;;-145.63;54.30;39325.41;5005426;28;20030;-69
2023/10/30 03:30:22;;;;;;;9.57;8.48;;;;;;;-145.63;54.38;39313.69;5005083;28;20214;-69
2023/10/30 03:32:48;;;;;;;9.68;8.23;;;;;;;-145.63;54.51;39366.50;5005047;28;20173;-69
2023/10/30 03:35:14;;;;;;;9.10;8.20;;;;;;;-145.63;54.05;39341.06;5004221;28;20029;-70
2023/10/30 03:37:39;;;;;;;9.48;8.48;;;;;;;-145.63;54.30;39329.34;5004514;28;20140;-70
2023/10/30 03:40:06;;;;;;;8.75;7.85;;;;;;;-145.63;54.67;39170.91;5004450;28;20026;-70
2023/10/30 03:42:31;;;;;;;8.98;7.90;;;;;;;-145.63;53.77;39348.88;5003817;28;20348;-69
2023/10/30 03:44:57;;;;;;;9.25;7.88;;;;;;;-145.63;53.78;39348.88;5003425;28;20027;-69
2023/10/30 03:47:22;;;;;;;9.73;7.97;;;;;;;-145.63;53.78;39335.19;5004499;28;20049;-68
2023/10/30 03:49:48;;;;;;;9.48;7.85;;;;;;;-145.63;53.67;39329.34;5004634;28;20056;-68
2023/10/30 03:52:14;;;;;;;8.77;7.85;;;;;;;-145.63;53.74;39354.75;5003613;28;20046;-69
2023/10/30 03:54:39;;;;;;;9.40;8.10;;;;;;;-145.63;53.44;39335.19;5004074;28;20026;-68
2023/10/30 03:57:08;;;;;;;8.77;7.88;;;;;;;-145.63;53.50;39337.16;5003835;28;20026;-67
2023/10/30 03:59:34;;;;;;;8.20;7.40;;;;;;;-145.63;53.48;39341.06;5004246;28;20380;-69
2023/10/30 04:02:00;;;;;;;10.50;7.90;;;;;;;-145.63;53.66;39337.16;5003660;28;20049;-67
2023/10/30 04:04:25;;;;;;;10.95;8.50;;;;;;;-145.63;53.92;39327.38;5004380;28;20034;-69
2023/10/30 04:06:51;;;;;;;8.23;7.43;;;;;;;-145.63;53.79;39309.78;5007652;28;20195;-68
2023/10/30 04:09:16;;;;;;;8.50;7.57;;;;;;;-145.63;54.12;39274.56;5004496;28;20034;-68
2023/10/30 04:11:46;;;;;;;8.57;7.68;;;;;;;-145.63;54.38;38951.88;4986459;28;20153;-69
2023/10/30 04:14:11;;;;;;;9.57;7.90;;;;;;;-145.63;54.61;39376.28;5004165;28;20037;-68
2023/10/30 04:16:37;;;;;;;8.75;7.75;;;;;;;-145.63;54.19;39327.38;5003395;28;20049;-69
2023/10/30 04:19:03;;;;;;;7.55;6.75;;;;;;;-145.63;54.13;39337.16;5004173;28;20046;-68
2023/10/30 04:21:28;;;;;;;8.77;7.65;;;;;;;-145.63;53.80;39301.94;5004069;28;20058;-70
2023/10/30 04:23:54;;;;;;;8.63;7.38;;;;;;;-145.63;53.73;39356.72;5004222;28;20026;-70
2023/10/30 04:26:20;;;;;;;7.88;7.07;;;;;;;-145.63;53.71;39315.66;5002740;28;20097;-70
2023/10/30 04:28:46;;;;;;;8.35;7.47;;;;;;;-145.63;53.88;39348.88;5001619;28;20030;-71
2023/10/30 04:31:12;;;;;;;7.68;6.88;;;;;;;-145.63;53.88;39325.41;4999099;28;20026;-69
2023/10/30 04:33:37;;;;;;;8.00;6.95;;;;;;;-145.63;54.14;39307.81;5000782;28;20061;-70
2023/10/30 04:36:04;;;;;;;10.85;8.05;;;;;;;-145.63;54.06;39305.88;4997394;28;20030;-70
2023/10/30 04:38:31;;;;;;;8.02;6.88;;;;;;;-145.63;54.22;39331.28;4993183;28;20026;-69
2023/10/30 04:40:58;;;;;;;7.70;6.70;;;;;;;-145.63;54.13;39350.84;4995193;28;20023;-69
2023/10/30 04:43:23;;;;;;;8.63;7.50;;;;;;;-145.63;54.71;39317.59;4998064;28;20030;-68
2023/10/30 04:45:49;;;;;;;8.63;7.82;;;;;;;-145.63;54.78;39360.63;5003667;28;20033;-69
2023/10/30 04:48:15;;;;;;;9.18;8.27;;;;;;;-145.63;55.10;39321.50;5003397;28;20018;-67
2023/10/30 04:50:40;;;;;;;7.72;6.82;;;;;;;-145.63;55.06;39317.59;5003431;28;20065;-67
2023/10/30 04:53:06;;;;;;;8.13;7.32;;;;;;;-145.63;55.06;39341.06;5003185;28;20049;-67
2023/10/30 04:55:32;;;;;;;8.60;7.18;;;;;;;-145.63;55.10;39303.91;5001845;28;20030;-68
2023/10/30 04:57:57;;;;;;;8.55;7.65;;;;;;;-145.63;55.78;39313.69;4985434;28;20052;-68
2023/10/30 05:00:23;;;;;;;9.70;8.13;;;;;;;-145.63;55.74;39335.19;5003247;28;20018;-69
2023/10/30 05:02:50;;;;;;;9.52;8.05;;;;;;;-145.63;55.97;39325.41;5004861;28;20030;-68
2023/10/30 05:05:15;;;;;;;8.73;7.90;;;;;;;-145.63;56.26;39301.94;5003419;28;20110;-70
2023/10/30 05:07:44;;;;;;;8.30;7.47;;;;;;;-145.63;56.69;39354.75;5003664;28;20014;-69
2023/10/30 05:10:10;;;;;;;8.65;7.68;;;;;;;-145.63;56.09;39331.28;5003207;28;20231;-69
2023/10/30 05:12:35;;;;;;;10.60;8.82;;;;;;;-145.63;56.41;39339.13;5003612;28;20068;-67
2023/10/30 05:15:01;;;;;;;9.18;7.97;;;;;;;-145.63;57.05;39329.34;5003328;28;20022;-68
2023/10/30 05:17:28;;;;;;;9.95;8.93;;;;;;;-145.63;57.03;39327.38;5012993;28;20093;-70
2023/10/30 05:19:53;;;;;;;11.18;9.52;;;;;;;-145.63;57.34;39321.50;5003642;28;20027;-69
2023/10/30 05:22:19;;;;;;;11.10;9.68;;;;;;;-145.63;57.70;39331.28;5003378;28;20077;-70
2023/10/30 05:24:44;;;;;;;13.95;10.63;;;;;;;-145.63;58.11;39356.72;5003638;28;20032;-70
2023/10/30 05:27:10;;;;;;;11.45;10.15;;;;;;;-145.63;58.17;39319.56;5003304;28;20030;-69
2023/10/30 05:29:36;;;;;;;12.45;10.60;;;;;;;-145.63;58.13;39346.94;5003295;28;20038;-71
2023/10/30 05:32:06;;;;;;;11.80;10.07;;;;;;;-145.63;58.75;39296.09;4986279;28;20030;-68
2023/10/30 05:34:34;;;;;;;10.25;8.93;;;;;;;-145.63;58.84;39311.72;5003201;28;20030;-69
2023/10/30 05:37:01;;;;;;;9.88;7.90;;;;;;;-145.63;58.97;39317.59;5003562;28;20022;-69
2023/10/30 05:39:27;;;;;;;9.50;8.18;;;;;;;-145.63;59.36;39286.31;5002269;28;20025;-68
2023/10/30 05:41:53;;;;;;;9.80;8.63;;;;;;;-145.63;59.57;39305.88;5002143;28;20227;-69
2023/10/30 05:44:19;;;;;;;11.15;8.93;;;;;;;-145.63;59.45;39300.00;4999601;28;20039;-68
2023/10/30 05:46:44;;;;;;;10.02;8.55;;;;;;;-145.63;59.74;39286.31;4993862;28;20056;-69
2023/10/30 05:49:10;;;;;;;9.80;8.60;;;;;;;-145.63;60.09;39298.03;4995664;28;20026;-68
2023/10/30 05:51:35;;;;;;;10.98;9.48;;;;;;;-145.63;60.31;39294.13;5003344;28;20038;-69
2023/10/30 05:54:01;;;;;;;11.77;10.27;;;;;;;-145.63;60.28;39282.41;5002576;28;20042;-69
2023/10/30 05:56:26;;;;;;;9.63;8.63;;;;;;;-145.63;60.06;39313.69;5002277;28;20042;-70
2023/10/30 05:58:52;;;;;;;11.90;9.10;;;;;;;-145.63;59.90;39321.50;4983529;28;20039;-69
2023/10/30 06:01:18;;;;;;;9.82;8.70;;;;;;;-145.63;60.08;39311.72;4995123;28;20045;-70
2023/10/30 06:03:44;;;;;;;10.95;8.77;;;;;;;-145.63;59.76;39286.31;4995242;28;20031;-70
2023/10/30 06:06:09;;;;;;;9.02;7.63;;;;;;;-145.63;59.73;39294.13;4998578;28;20026;-69
2023/10/30 06:08:36;;;;;;;8.45;7.55;;;;;;;-145.63;59.86;39274.56;4994425;28;20274;-70
2023/10/30 06:11:02;;;;;;;8.38;7.07;;;;;;;-145.63;59.78;39301.94;4997942;28;20098;-70
2023/10/30 06:13:28;;;;;;;8.98;7.30;;;;;;;-145.63;59.74;39317.59;4997665;28;20025;-69
2023/10/30 06:15:54;;;;;;;8.15;7.28;;;;;;;-145.63;59.52;39313.69;4980134;28;20025;-72
2023/10/30 06:18:21;;;;;;;7.57;6.82;;;;;;;-145.63;59.80;39274.56;4996291;28;20029;-71
2023/10/30 06:20:46;;;;;;;8.13;6.90;;;;;;;-145.63;60.03;39276.53;4979682;28;20027;-71
2023/10/30 06:23:12;;;;;;;9.43;7.70;;;;;;;-145.63;59.66;39300.00;5000112;28;20327;-71
2023/10/30 06:25:38;;;;;;;9.48;8.52;;;;;;;-145.63;59.58;39337.16;4996798;28;20026;-71
2023/10/30 06:28:04;;;;;;;9.60;8.00;;;;;;;-145.63;59.83;39305.88;4999984;28;20214;-69
2023/10/30 06:30:29;;;;;;;9.70;8.70;;;;;;;-145.63;60.64;39313.69;4996765;28;20026;-70
2023/10/30 06:32:55;;;;;;;11.50;8.77;;;;;;;-145.63;60.55;39170.91;4997831;28;20041;-69
2023/10/30 06:35:21;;;;;;;11.75;8.63;;;;;;;-145.63;60.83;39301.94;5005882;28;20243;-70
2023/10/30 06:37:46;;;;;;;10.57;7.57;;;;;;;-145.63;59.97;39321.50;5005621;28;20057;-70
2023/10/30 06:40:12;;;;;;;8.60;7.45;;;;;;;-145.63;59.80;39288.25;5005654;28;20034;-71
2023/10/30 06:42:38;;;;;;;15.88;12.55;;;;;;;-145.63;60.59;39290.22;5004691;28;20030;-70
2023/10/30 06:45:04;;;;;;;10.85;9.38;;;;;;;-145.63;60.68;39288.25;4988361;28;20030;-71
2023/10/30 06:47:31;;;;;;;8.82;7.88;;;;;;;-145.63;60.07;39307.81;5005881;28;20030;-71
2023/10/30 06:49:57;;;;;;;11.65;8.05;;;;;;;-145.63;59.76;39286.31;4988691;28;20036;-70
2023/10/30 06:52:23;;;;;;;9.60;8.65;;;;;;;-145.63;60.07;39305.88;5005548;28;20046;-70
2023/10/30 06:54:49;;;;;;;9.68;8.68;;;;;;;-145.63;60.05;39327.38;5005374;28;20081;-70
2023/10/30 06:57:14;;;;;;;10.45;8.20;;;;;;;-145.63;60.03;39311.72;4987070;28;20061;-70
2023/10/30 06:59:40;;;;;;;9.20;7.72;;;;;;;-145.63;59.94;39292.19;5005367;28;20033;-68
2023/10/30 07:02:06;;;;;;;8.75;7.72;;;;;;;-145.63;59.40;39343.03;5004902;28;20037;-69
2023/10/30 07:04:32;;;;;;;8.02;7.20;;;;;;;-145.63;59.20;39311.72;5000637;28;20251;-69
2023/10/30 07:06:57;;;;;;;8.80;7.50;;;;;;;-145.63;59.77;39307.81;4998590;28;20033;-69
2023/10/30 07:09:23;;;;;;;8.80;7.60;;;;;;;-145.63;59.88;39307.81;4995842;28;20975;-69
2023/10/30 07:11:49;;;;;;;8.48;7.43;;;;;;;-145.63;60.29;39325.41;5007795;28;20261;-71
2023/10/30 07:14:15;;;;;;;8.45;7.18;;;;;;;-145.63;59.83;39278.47;4999623;28;20030;-70
2023/10/30 07:16:41;;;;;;;10.55;8.23;;;;;;;-145.63;60.15;39270.66;4999382;28;20086;-69
2023/10/30 07:19:07;;;;;;;10.10;8.35;;;;;;;-145.63;60.49;39305.88;4978063;28;20026;-69
2023/10/30 07:21:32;;;;;;;8.90;8.00;;;;;;;-145.63;60.38;39325.41;4996468;28;20058;-69
2023/10/30 07:23:58;;;;;;;9.70;8.57;;;;;;;-145.63;61.00;39282.41;4996531;28;20333;-70
2023/10/30 07:26:24;;;;;;;10.07;8.18;;;;;;;-145.63;60.92;39305.88;4995709;28;20035;-69
2023/10/30 07:28:51;;;;;;;9.50;8.38;;;;;;;-145.63;60.82;39294.13;4996365;28;20023;-70
2023/10/30 07:31:18;;;;;;;9.75;8.73;;;;;;;-145.63;61.58;39313.69;4996913;28;20199;-72
2023/10/30 07:33:49;;;;;;;10.05;8.52;;;;;;;-145.63;61.44;39331.28;4997450;28;20038;-71
2023/10/30 07:36:15;;;;;;;8.70;7.80;;;;;;;-145.63;61.26;39301.94;4980951;28;20048;-71
2023/10/30 07:38:41;;;;;;;9.82;7.55;;;;;;;-145.63;61.39;39296.09;4996921;28;20346;-72
2023/10/30 07:41:07;;;;;;;9.23;7.13;;;;;;;-145.63;60.61;39296.09;4997230;28;20029;-71
2023/10/30 07:43:34;;;;;;;8.57;7.55;;;;;;;-145.63;60.94;39319.56;4996480;28;20098;-73
2023/10/30 07:46:00;;;;;;;9.07;7.93;;;;;;;-145.63;61.27;39309.78;4995408;28;20053;-69
2023/10/30 07:48:28;;;;;;;8.80;7.78;;;;;;;-145.63;61.09;39313.69;4996417;28;20014;-69
2023/10/30 07:50:54;;;;;;;9.48;7.90;;;;;;;-145.63;61.04;39311.72;4995572;28;20018;-70
2023/10/30 07:53:19;;;;;;;9.65;8.30;;;;;;;-145.63;61.00;39319.56;4997657;28;20344;-69
2023/10/30 07:55:47;;;;;;;8.48;7.68;;;;;;;-145.63;60.78;39303.91;5004992;28;20096;-69
2023/10/30 07:58:13;;;;;;;9.43;8.07;;;;;;;-145.63;60.91;39098.56;5004253;28;20027;-70
2023/10/30 08:00:39;;;;;;;10.10;7.97;;;;;;;-145.63;61.15;39315.66;4986638;28;20267;-69
2023/10/30 08:03:06;;;;;;;9.95;7.85;;;;;;;-145.63;61.53;39346.94;5003359;28;20030;-69
2023/10/30 08:05:32;;;;;;;9.43;7.88;;;;;;;-145.63;61.44;39329.34;4999338;28;20144;-69
2023/10/30 08:07:58;;;;;;;8.55;7.63;;;;;;;-145.63;61.79;39317.59;4998828;28;20073;-70
2023/10/30 08:10:24;;;;;;;9.07;8.18;;;;;;;-145.63;61.77;39061.41;5001655;28;20033;-70
2023/10/30 08:12:50;;;;;;;8.90;7.70;;;;;;;-145.63;62.19;39260.88;4998981;28;20338;-68
2023/10/30 08:15:16;;;;;;;9.90;8.27;;;;;;;-145.63;61.95;39395.84;4994134;28;20037;-69
2023/10/30 08:17:41;;;;;;;9.98;7.95;;;;;;;-145.63;61.69;39321.50;4997220;28;20086;-69
2023/10/30 08:20:09;;;;;;;8.77;7.88;;;;;;;-145.63;61.91;39307.81;4994952;28;20089;-69
2023/10/30 08:22:36;;;;;;;8.13;7.28;;;;;;;-145.63;61.63;39327.38;5000750;28;20028;-69
2023/10/30 08:25:02;;;;;;;9.23;7.65;;;;;;;-145.63;61.20;39317.59;5002084;28;20314;-69
2023/10/30 08:27:32;;;;;;;7.25;6.35;;;;;;;-145.63;61.46;39313.69;5003669;28;20796;-69
2023/10/30 08:29:57;;;;;;;8.18;7.22;;;;;;;-145.63;61.75;39135.72;5003493;28;20148;-68
2023/10/30 08:32:23;;;;;;;7.80;7.00;;;;;;;-145.63;61.59;39317.59;5001988;28;20038;-70
2023/10/30 08:34:49;;;;;;;7.22;6.53;;;;;;;-145.63;61.47;39331.28;5003444;28;20033;-69
2023/10/30 08:37:15;;;;;;;7.70;6.80;;;;;;;-145.63;61.39;39296.09;5004546;28;20061;-68
2023/10/30 08:39:40;;;;;;;7.97;6.60;;;;;;;-145.63;61.42;39341.06;5003729;28;20082;-69
2023/10/30 08:42:06;;;;;;;7.05;6.32;;;;;;;-145.63;61.44;39296.09;4999628;28;20092;-68
2023/10/30 08:44:32;;;;;;;6.80;6.10;;;;;;;-145.63;61.49;39284.34;4995710;28;20044;-67
2023/10/30 08:46:59;;;;;;;7.47;5.90;;;;;;;-145.63;61.73;39331.28;4997722;28;20038;-68
2023/10/30 08:49:25;;;;;;;7.20;6.40;;;;;;;-145.63;61.79;39321.50;4999477;28;20026;-67
2023/10/30 08:51:51;;;;;;;7.15;6.38;;;;;;;-145.63;61.82;39300.00;4997356;28;20029;-67
2023/10/30 08:54:16;;;;;;;7.07;6.38;;;;;;;-145.63;61.43;39309.78;4997229;28;20049;-68
2023/10/30 08:56:43;;;;;;;9.70;6.10;;;;;;;-145.63;61.39;39300.00;4997472;28;20030;-67
2023/10/30 08:59:09;;;;;;;7.05;5.63;;;;;;;-145.63;60.83;39311.72;4993267;28;20027;-68
2023/10/30 09:01:35;;;;;;;7.00;6.13;;;;;;;-145.63;61.13;39325.41;4984765;28;20041;-68
2023/10/30 09:04:00;;;;;;;8.10;6.60;;;;;;;-145.63;61.62;39333.25;5003797;28;20026;-68
2023/10/30 09:06:29;;;;;;;7.28;6.28;;;;;;;-145.63;61.39;39284.34;5004904;28;20246;-69
2023/10/30 09:08:54;;;;;;;8.93;6.43;;;;;;;-145.63;61.25;39309.78;5002711;28;20076;-68
2023/10/30 09:11:20;;;;;;;7.82;6.15;;;;;;;-145.63;61.14;39286.31;5003599;28;20030;-68
2023/10/30 09:13:46;;;;;;;6.22;5.63;;;;;;;-145.63;61.44;39329.34;5003378;28;20022;-68
2023/10/30 09:16:12;;;;;;;6.18;5.57;;;;;;;-145.63;61.35;39219.81;5002815;28;20030;-69
2023/10/30 09:18:38;;;;;;;6.93;5.60;;;;;;;-145.63;61.74;39344.97;4985796;28;20039;-70
2023/10/30 09:21:04;;;;;;;8.18;6.00;;;;;;;-145.63;61.68;39288.25;4998223;28;20345;-69
2023/10/30 09:23:30;;;;;;;7.45;6.70;;;;;;;-145.63;61.60;39323.47;5003414;28;20096;-69
2023/10/30 09:25:55;;;;;;;7.07;6.38;;;;;;;-145.63;61.66;39313.69;5001994;28;20254;-68
2023/10/30 09:28:21;;;;;;;8.10;6.47;;;;;;;-145.63;61.71;39296.09;4997985;28;20101;-67
2023/10/30 09:30:47;;;;;;;6.88;6.18;;;;;;;-145.63;61.60;39331.28;4999942;28;20049;-69
2023/10/30 09:33:13;;;;;;;9.13;7.07;;;;;;;-145.63;61.52;39309.78;4998511;28;20030;-68
2023/10/30 09:35:38;;;;;;;7.85;6.65;;;;;;;-145.63;62.50;39307.81;5002700;28;20038;-68
2023/10/30 09:38:05;;;;;;;9.48;6.90;;;;;;;-145.63;62.30;39307.81;5000764;28;20022;-68
2023/10/30 09:40:31;;;;;;;8.52;7.28;;;;;;;-145.63;62.08;39309.78;5003044;28;20073;-69
2023/10/30 09:42:58;;;;;;;8.25;7.45;;;;;;;-145.63;62.23;39337.16;5014621;28;20026;-70
2023/10/30 09:45:25;;;;;;;11.73;9.18;;;;;;;-145.63;62.19;39321.50;5013754;28;20088;-68
2023/10/30 09:47:55;;;;;;;9.05;7.93;;;;;;;-145.63;62.14;39311.72;5005900;28;20069;-69
2023/10/30 09:50:22;;;;;;;12.27;8.93;;;;;;;-145.63;62.10;39329.34;5004521;28;20060;-68
2023/10/30 09:52:51;;;;;;;10.23;8.25;;;;;;;-145.63;62.72;39319.56;5005859;28;20077;-69
2023/10/30 09:55:18;;;;;;;9.88;8.77;;;;;;;-145.63;62.63;39305.88;5007078;28;20035;-68
2023/10/30 09:57:49;;;;;;;12.23;9.18;;;;;;;-145.63;62.78;39313.69;5007405;28;20049;-69
2023/10/30 10:00:16;;;;;;;10.10;9.02;;;;;;;-145.63;63.08;39346.94;5016288;28;20037;-70
2023/10/30 10:02:42;;;;;;;10.15;9.05;;;;;;;-145.63;63.08;39323.47;4989044;28;20199;-70
2023/10/30 10:05:09;;;;;;;10.88;8.93;;;;;;;-145.63;63.43;39300.00;5005459;28;20033;-68
2023/10/30 10:07:36;;;;;;;10.85;8.65;;;;;;;-145.63;63.55;39294.13;5011287;28;20050;-69
2023/10/30 10:10:03;;;;;;;9.32;8.18;;;;;;;-145.63;64.01;39294.13;5005813;28;20033;-69
2023/10/30 10:12:36;;;;;;;11.80;10.50;;;;;;;-145.63;64.47;39321.50;5004880;28;20105;-69
2023/10/30 10:15:06;;;;;;;11.55;10.15;;;;;;;-145.63;64.05;39305.88;5006024;28;20041;-69
2023/10/30 10:17:48;;;;;;;12.70;10.13;;;;;;;-145.63;63.84;39323.47;5023237;28;20053;-71
2023/10/30 10:20:14;;;;;;;14.95;12.35;;;;;;;-145.63;63.95;39311.72;4987174;28;20029;-69
2023/10/30 10:22:40;;;;;;;12.98;11.27;;;;;;;-145.63;63.80;39309.78;5002185;28;20062;-67
2023/10/30 10:25:11;;;;;;;14.43;11.25;;;;;;;-145.63;63.53;39313.69;5006093;28;20471;-70
2023/10/30 10:27:40;;;;;;;14.02;11.20;;;;;;;-145.63;63.35;39323.47;5006041;28;20031;-67
2023/10/30 10:30:07;;;;;;;13.95;11.02;;;;;;;-145.63;63.74;39313.69;5005967;28;20022;-70
2023/10/30 10:32:33;;;;;;;12.38;11.02;;;;;;;-145.63;63.57;39327.38;5006011;28;20023;-70
2023/10/30 10:35:05;;;;;;;12.43;10.45;;;;;;;-145.63;63.51;39325.41;5006103;28;20037;-69
2023/10/30 10:37:34;;;;;;;14.40;11.02;;;;;;;-145.63;63.56;39315.66;5007530;28;20026;-70
2023/10/30 10:40:02;;;;;;;13.27;10.77;;;;;;;-145.63;63.34;39331.28;5005707;28;20046;-69
2023/10/30 10:42:31;;;;;;;14.60;12.05;;;;;;;-145.63;63.30;39303.91;5004938;28;20106;-69
2023/10/30 10:44:59;;;;;;;12.82;10.82;;;;;;;-145.63;63.14;39386.06;5005867;28;20030;-69
2023/10/30 10:47:25;;;;;;;15.40;12.18;;;;;;;-145.63;63.07;39341.06;5005589;28;20030;-70
2023/10/30 10:49:51;;;;;;;13.82;10.35;;;;;;;-145.63;63.17;39325.41;5006011;28;20038;-69
2023/10/30 10:52:19;;;;;;;14.02;11.68;;;;;;;-145.63;63.06;39391.91;5004854;28;20152;-70
2023/10/30 10:55:04;;;;;;;14.85;11.70;;;;;;;-145.63;63.49;39335.19;5004637;28;20084;-71
2023/10/30 10:57:51;;;;;;;16.75;11.75;;;;;;;-145.63;63.22;39327.38;5015952;28;20026;-71
2023/10/30 11:00:17;;;;;;;14.18;11.55;;;;;;;-145.63;63.21;39309.78;5005576;28;20038;-72
2023/10/30 11:02:48;;;;;;;20.75;13.73;;;;;;;-145.63;63.22;39321.50;5024156;28;20270;-70
2023/10/30 11:05:15;;;;;;;16.63;12.85;;;;;;;-145.63;63.16;39323.47;4985961;28;20311;-70
2023/10/30 11:07:52;;;;;;;17.52;12.43;;;;;;;-145.63;63.53;39341.06;5001008;28;20033;-70
2023/10/30 11:10:25;;;;;;;16.52;13.23;;;;;;;-145.63;63.74;39356.72;5005394;28;20054;-69